OMJ YARM-YSTW

Flight info

Callsign OMJ
Flight time 0h 24m
Altitude 6500
Route ARM W434 TW
Aircraft C208/L-SDFGR/C

Departure

Time 2026-04-20 07:07
Airport Armidale Airport (YARM)

Arrival

Time 2026-04-20 07:31
Airport Tamworth Airport (YSTW)
Time Latitude Longitude Altitude Speed Heading
2026-04-20 07:05 -30.53075 151.61562 3554 ft 2 kts 32°
2026-04-20 07:05 -30.53031 151.61600 3554 ft 14 kts 50°
2026-04-20 07:05 -30.52953 151.61743 3551 ft 28 kts 56°
2026-04-20 07:05 -30.52840 151.61956 3548 ft 31 kts 62°
2026-04-20 07:06 -30.52789 151.61860 3549 ft 26 kts 239°
2026-04-20 07:06 -30.52932 151.61593 3553 ft 58 kts 239°
2026-04-20 07:06 -30.53194 151.61075 3603 ft 85 kts 239°
2026-04-20 07:06 -30.53507 151.60453 3760 ft 91 kts 231°
2026-04-20 07:07 -30.53863 151.59853 3961 ft 90 kts 226°
2026-04-20 07:07 -30.54193 151.59235 4129 ft 88 kts 222°
2026-04-20 07:07 -30.54612 151.58738 4272 ft 89 kts 219°
2026-04-20 07:07 -30.55036 151.58152 4394 ft 99 kts 226°
2026-04-20 07:08 -30.55498 151.57506 4523 ft 108 kts 223°
2026-04-20 07:08 -30.55978 151.56822 4642 ft 113 kts 222°
2026-04-20 07:08 -30.56483 151.56102 4770 ft 117 kts 223°
2026-04-20 07:08 -30.57024 151.55324 4865 ft 131 kts 224°
2026-04-20 07:09 -30.57617 151.54466 4982 ft 140 kts 223°
2026-04-20 07:09 -30.58245 151.53556 5100 ft 148 kts 224°
2026-04-20 07:09 -30.58894 151.52616 5209 ft 153 kts 225°
2026-04-20 07:09 -30.59567 151.51640 5323 ft 157 kts 224°
2026-04-20 07:10 -30.60257 151.50642 5435 ft 159 kts 226°
2026-04-20 07:10 -30.60956 151.49630 5539 ft 160 kts 225°
2026-04-20 07:10 -30.61640 151.48640 5639 ft 162 kts 224°
2026-04-20 07:10 -30.62331 151.47632 5739 ft 161 kts 226°
2026-04-20 07:11 -30.63030 151.46627 5844 ft 159 kts 225°
2026-04-20 07:11 -30.63725 151.45625 5940 ft 159 kts 227°
2026-04-20 07:11 -30.64418 151.44619 6028 ft 158 kts 226°
2026-04-20 07:11 -30.65105 151.43625 6130 ft 157 kts 225°
2026-04-20 07:12 -30.65788 151.42636 6230 ft 157 kts 226°
2026-04-20 07:12 -30.66462 151.41658 6334 ft 157 kts 225°
2026-04-20 07:12 -30.67151 151.40663 6437 ft 158 kts 225°
2026-04-20 07:12 -30.67845 151.39658 6495 ft 162 kts 227°
2026-04-20 07:13 -30.68563 151.38615 6506 ft 167 kts 226°
2026-04-20 07:13 -30.69298 151.37548 6507 ft 169 kts 226°
2026-04-20 07:13 -30.70038 151.36476 6510 ft 171 kts 227°
2026-04-20 07:13 -30.70775 151.35407 6501 ft 170 kts 228°
2026-04-20 07:14 -30.71515 151.34330 6500 ft 170 kts 228°
2026-04-20 07:14 -30.72254 151.33258 6493 ft 169 kts 228°
2026-04-20 07:14 -30.72988 151.32191 6496 ft 169 kts 229°
2026-04-20 07:14 -30.73724 151.31123 6499 ft 170 kts 226°
2026-04-20 07:15 -30.74468 151.30043 6496 ft 171 kts 227°
2026-04-20 07:15 -30.75202 151.28975 6495 ft 171 kts 227°
2026-04-20 07:15 -30.75946 151.27896 6492 ft 171 kts 228°
2026-04-20 07:15 -30.76688 151.26814 6490 ft 170 kts 227°
2026-04-20 07:16 -30.77425 151.25742 6492 ft 169 kts 226°
2026-04-20 07:16 -30.77909 151.25038 6491 ft 168 kts 226°
2026-04-20 07:16 -30.78872 151.23640 6496 ft 166 kts 228°
2026-04-20 07:16 -30.79589 151.22595 6492 ft 165 kts 228°
2026-04-20 07:17 -30.80308 151.21544 6494 ft 167 kts 228°
2026-04-20 07:17 -30.80789 151.20842 6493 ft 168 kts 227°
2026-04-20 07:17 -30.81521 151.19779 6494 ft 168 kts 227°
2026-04-20 07:17 -30.82255 151.18710 6497 ft 169 kts 227°
2026-04-20 07:18 -30.83229 151.17290 6502 ft 169 kts 227°
2026-04-20 07:18 -30.83963 151.16220 6495 ft 168 kts 228°
2026-04-20 07:18 -30.84446 151.15515 6495 ft 168 kts 228°
2026-04-20 07:18 -30.85178 151.14447 6493 ft 169 kts 229°
2026-04-20 07:19 -30.85912 151.13374 6496 ft 169 kts 227°
2026-04-20 07:19 -30.86650 151.12300 6499 ft 170 kts 228°
2026-04-20 07:19 -30.87469 151.11332 6498 ft 165 kts 206°
2026-04-20 07:19 -30.88551 151.11221 6493 ft 157 kts 160°
2026-04-20 07:20 -30.89298 151.12070 6500 ft 157 kts 112°
2026-04-20 07:20 -30.89229 151.13316 6502 ft 162 kts 63°
2026-04-20 07:20 -30.88494 151.14319 6508 ft 164 kts 48°
2026-04-20 07:20 -30.87913 151.15415 6497 ft 159 kts 83°
2026-04-20 07:21 -30.88137 151.16634 6491 ft 157 kts 124°
2026-04-20 07:21 -30.88997 151.17379 6487 ft 158 kts 163°
2026-04-20 07:21 -30.90073 151.17280 6489 ft 160 kts 203°
2026-04-20 07:21 -30.90845 151.16381 6492 ft 164 kts 235°
2026-04-20 07:22 -30.91381 151.15215 6499 ft 162 kts 239°
2026-04-20 07:22 -30.91920 151.14063 6500 ft 161 kts 237°
2026-04-20 07:22 -30.92466 151.12916 6501 ft 162 kts 238°
2026-04-20 07:22 -30.93013 151.11763 6502 ft 163 kts 237°
2026-04-20 07:23 -30.93563 151.10603 6503 ft 164 kts 237°
2026-04-20 07:23 -30.94117 151.09444 6496 ft 163 kts 237°
2026-04-20 07:23 -30.94661 151.08296 6497 ft 163 kts 237°
2026-04-20 07:23 -30.95213 151.07133 6493 ft 164 kts 238°
2026-04-20 07:24 -30.95761 151.05975 6510 ft 162 kts 237°
2026-04-20 07:24 -30.96317 151.04812 6436 ft 168 kts 238°
2026-04-20 07:24 -30.96875 151.03623 6257 ft 164 kts 235°
2026-04-20 07:24 -30.97219 151.02354 6057 ft 166 kts 255°
2026-04-20 07:25 -30.97363 151.01035 5883 ft 163 kts 258°
2026-04-20 07:25 -30.97515 150.99747 5707 ft 161 kts 256°
2026-04-20 07:25 -30.97656 150.98445 5528 ft 162 kts 257°
2026-04-20 07:25 -30.97774 150.97147 5337 ft 160 kts 257°
2026-04-20 07:26 -30.97900 150.95866 5163 ft 159 kts 258°
2026-04-20 07:26 -30.98032 150.94581 4981 ft 160 kts 259°
2026-04-20 07:26 -30.98159 150.93285 4803 ft 162 kts 258°
2026-04-20 07:26 -30.98285 150.91973 4548 ft 164 kts 259°
2026-04-20 07:27 -30.98407 150.90661 4311 ft 167 kts 259°
2026-04-20 07:27 -30.98535 150.89308 4064 ft 168 kts 259°
2026-04-20 07:27 -30.98720 150.87976 3814 ft 164 kts 243°
2026-04-20 07:27 -30.99351 150.86932 3573 ft 153 kts 223°
2026-04-20 07:28 -31.00032 150.85988 3322 ft 152 kts 225°
2026-04-20 07:28 -31.00713 150.85045 3068 ft 151 kts 224°
2026-04-20 07:28 -31.01379 150.84101 2824 ft 150 kts 224°
2026-04-20 07:28 -31.02045 150.83179 2574 ft 146 kts 223°
2026-04-20 07:29 -31.02716 150.82319 2350 ft 138 kts 224°
2026-04-20 07:29 -31.03355 150.81568 2279 ft 126 kts 217°
2026-04-20 07:29 -31.04099 150.81207 2163 ft 114 kts 178°
2026-04-20 07:29 -31.04813 150.81345 2095 ft 93 kts 165°
2026-04-20 07:30 -31.05387 150.81693 1971 ft 96 kts 148°
2026-04-20 07:30 -31.05900 150.82225 1857 ft 103 kts 142°
2026-04-20 07:30 -31.06389 150.82823 1720 ft 99 kts 143°
2026-04-20 07:30 -31.06848 150.83393 1461 ft 95 kts 144°
2026-04-20 07:31 -31.07296 150.83939 1358 ft 89 kts 141°
2026-04-20 07:31 -31.07694 150.84435 1339 ft 76 kts 140°
2026-04-20 07:31 -31.07995 150.84806 1347 ft 49 kts 133°
2026-04-20 07:31 -31.08195 150.85051 1344 ft 31 kts 138°
2026-04-20 07:32 -31.08292 150.85016 1345 ft 16 kts 217°
2026-04-20 07:32 -31.08318 150.84991 1345 ft 0 kts 225°
2026-04-20 07:32 -31.08330 150.84974 1347 ft 7 kts 228°
2026-04-20 07:33 -31.08391 150.84940 1345 ft 14 kts 156°
2026-04-20 07:33 -31.08471 150.85045 1349 ft 21 kts 129°
2026-04-20 07:33 -31.08569 150.85094 1350 ft 16 kts 140°
2026-04-20 07:33 -31.08588 150.85162 1349 ft 7 kts 311°
2026-04-20 07:34 -31.08587 150.85160 1349 ft 0 kts 311°